createdAt,value
2017-04-10T00:00:18.439Z,0
2017-04-10T00:01:40.589Z,0
2017-04-10T00:03:02.927Z,0
2017-04-10T00:04:25.367Z,0
2017-04-10T00:05:47.196Z,0
2017-04-10T00:07:09.053Z,0
2017-04-10T00:08:31.207Z,0
2017-04-10T00:09:52.979Z,0
2017-04-10T00:11:15.123Z,0
2017-04-10T00:12:37.362Z,0
2017-04-10T00:13:58.607Z,0
2017-04-10T00:15:20.742Z,0
2017-04-10T00:16:43.200Z,0
2017-04-10T00:18:05.465Z,0
2017-04-10T00:19:27.326Z,0
2017-04-10T00:20:49.798Z,0
2017-04-10T00:22:11.966Z,0
2017-04-10T00:23:33.481Z,0
2017-04-10T00:24:56.008Z,0
2017-04-10T00:26:18.090Z,0
2017-04-10T00:27:40.242Z,0
2017-04-10T00:29:02.070Z,0
2017-04-10T00:30:24.237Z,0
2017-04-10T00:31:46.695Z,0
2017-04-10T00:33:09.148Z,0
2017-04-10T00:34:31.480Z,0
2017-04-10T00:35:53.419Z,0
2017-04-10T00:37:15.484Z,0
2017-04-10T00:38:38.006Z,0
2017-04-10T00:40:00.461Z,0
2017-04-10T00:41:22.611Z,0
2017-04-10T00:42:44.799Z,0
2017-04-10T00:44:06.629Z,0
2017-04-10T00:45:29.090Z,0
2017-04-10T00:46:51.617Z,0
2017-04-10T00:48:14.010Z,0
2017-04-10T00:49:36.167Z,0
2017-04-10T00:50:57.673Z,0
2017-04-10T00:52:19.488Z,0
2017-04-10T00:53:41.973Z,0
2017-04-10T00:55:03.798Z,0
2017-04-10T00:56:26.076Z,0
2017-04-10T00:57:47.285Z,0
2017-04-10T00:59:09.699Z,0
2017-04-10T01:00:31.887Z,0
2017-04-10T01:01:53.479Z,0
2017-04-10T01:03:15.704Z,0
2017-04-10T01:04:37.850Z,0
2017-04-10T01:05:59.699Z,0
2017-04-10T01:07:22.158Z,0
2017-04-10T01:08:43.981Z,0
2017-04-10T01:10:06.708Z,0
2017-04-10T01:11:28.218Z,0
2017-04-10T01:12:50.058Z,0
2017-04-10T01:14:12.523Z,0
2017-04-10T01:15:34.739Z,0
2017-04-10T01:16:56.962Z,0
2017-04-10T01:18:18.806Z,0
2017-04-10T01:19:41.008Z,0
2017-04-10T01:21:03.100Z,0
2017-04-10T01:22:24.950Z,0
2017-04-10T01:23:47.168Z,0
2017-04-10T01:25:08.372Z,0
2017-04-10T01:26:30.825Z,0
2017-04-10T01:27:52.343Z,0
2017-04-10T01:29:14.930Z,0
2017-04-10T01:30:37.111Z,0
2017-04-10T01:31:59.178Z,0
2017-04-10T01:33:20.701Z,0
2017-04-10T01:34:42.836Z,0
2017-04-10T01:36:04.349Z,0
2017-04-10T01:37:26.539Z,0
2017-04-10T01:38:48.438Z,0
2017-04-10T01:40:10.591Z,0
2017-04-10T01:41:31.778Z,0
2017-04-10T01:42:54.480Z,0
2017-04-10T01:44:15.698Z,0
2017-04-10T01:45:37.499Z,0
2017-04-10T01:46:59.949Z,0
2017-04-10T01:48:22.398Z,0
2017-04-10T01:49:44.531Z,0
2017-04-10T01:51:06.810Z,0
2017-04-10T01:52:29.270Z,0
2017-04-10T01:53:51.989Z,0
2017-04-10T01:55:14.174Z,0
2017-04-10T01:56:36.284Z,0
2017-04-10T01:57:57.157Z,0
2017-04-10T01:59:19.650Z,0
2017-04-10T02:00:41.793Z,0
2017-04-10T02:02:03.990Z,0
2017-04-10T02:03:25.852Z,0
2017-04-10T02:04:48.458Z,0
2017-04-10T02:06:10.298Z,0
2017-04-10T02:07:32.489Z,0
2017-04-10T02:08:54.328Z,0
2017-04-10T02:10:16.375Z,0
2017-04-10T02:11:38.840Z,0
2017-04-10T02:13:01.329Z,0
2017-04-10T02:14:22.849Z,0
2017-04-10T02:15:44.618Z,0
2017-04-10T02:17:06.529Z,0
2017-04-10T02:18:28.704Z,0
2017-04-10T02:19:51.153Z,0
2017-04-10T02:21:13.257Z,0
2017-04-10T02:22:34.769Z,0
2017-04-10T02:23:56.646Z,0
2017-04-10T02:25:18.174Z,0
2017-04-10T02:26:39.938Z,0
2017-04-10T02:28:01.519Z,0
2017-04-10T02:29:23.359Z,0
2017-04-10T02:30:44.887Z,0
2017-04-10T02:32:06.736Z,0
2017-04-10T02:33:28.549Z,0
2017-04-10T02:34:50.687Z,0
2017-04-10T02:36:12.508Z,0
2017-04-10T02:37:35.229Z,0
2017-04-10T02:38:57.412Z,0
2017-04-10T02:40:19.568Z,0
2017-04-10T02:41:41.375Z,0
2017-04-10T02:43:03.439Z,0
2017-04-10T02:44:25.310Z,0
2017-04-10T02:45:47.147Z,0
2017-04-10T02:47:09.313Z,0
2017-04-10T02:48:31.205Z,0
2017-04-10T02:49:53.699Z,0
2017-04-10T02:51:15.527Z,0
2017-04-10T02:52:37.663Z,0
2017-04-10T02:53:59.786Z,0
2017-04-10T02:55:21.928Z,0
2017-04-10T02:56:43.589Z,0
2017-04-10T02:58:05.817Z,0
2017-04-10T02:59:27.724Z,0
2017-04-10T03:00:49.559Z,0
2017-04-10T03:02:11.678Z,0
2017-04-10T03:03:33.949Z,0
2017-04-10T03:04:56.028Z,0
2017-04-10T03:06:17.560Z,0
2017-04-10T03:07:39.056Z,0
2017-04-10T03:09:00.876Z,0
2017-04-10T03:10:22.950Z,0
2017-04-10T03:11:44.509Z,0
2017-04-10T03:13:06.432Z,0
2017-04-10T03:14:28.037Z,0
2017-04-10T03:15:50.772Z,0
2017-04-10T03:17:12.617Z,0
2017-04-10T03:18:35.327Z,0
2017-04-10T03:19:57.499Z,0
2017-04-10T03:21:19.321Z,0
2017-04-10T03:22:41.638Z,0
2017-04-10T03:24:03.173Z,0
2017-04-10T03:25:24.720Z,0
2017-04-10T03:26:47.438Z,0
2017-04-10T03:28:09.259Z,0
2017-04-10T03:29:31.406Z,0
2017-04-10T03:30:52.909Z,0
2017-04-10T03:32:14.989Z,0
2017-04-10T03:33:36.807Z,0
2017-04-10T03:34:58.669Z,0
2017-04-10T03:36:20.173Z,0
2017-04-10T03:37:42.607Z,0
2017-04-10T03:39:04.130Z,0
2017-04-10T03:40:25.629Z,0
2017-04-10T03:41:47.140Z,0
2017-04-10T03:43:09.517Z,0
2017-04-10T03:44:31.409Z,0
2017-04-10T03:45:53.588Z,0
2017-04-10T03:47:15.731Z,0
2017-04-10T03:48:38.108Z,0
2017-04-10T03:50:00.746Z,0
2017-04-10T03:51:23.149Z,0
2017-04-10T03:52:45.333Z,0
2017-04-10T03:54:07.469Z,0
2017-04-10T03:55:29.448Z,0
2017-04-10T03:56:51.554Z,0
2017-04-10T03:58:13.389Z,0
2017-04-10T03:59:35.868Z,0
2017-04-10T04:00:58.381Z,0
2017-04-10T04:02:19.901Z,0
2017-04-10T04:03:41.728Z,0
2017-04-10T04:05:03.539Z,0
2017-04-10T04:06:26.013Z,0
2017-04-10T04:07:48.131Z,0
2017-04-10T04:09:09.939Z,0
2017-04-10T04:10:31.868Z,0
2017-04-10T04:11:53.807Z,0
2017-04-10T04:13:15.328Z,0
2017-04-10T04:14:37.228Z,0
2017-04-10T04:15:58.399Z,0
2017-04-10T04:17:19.914Z,0
2017-04-10T04:18:41.774Z,0
2017-04-10T04:20:03.396Z,0
2017-04-10T04:21:25.799Z,0
2017-04-10T04:22:47.307Z,0
2017-04-10T04:24:09.107Z,0
2017-04-10T04:25:30.618Z,5
2017-04-10T04:26:53.450Z,5
2017-04-10T04:28:15.269Z,5
2017-04-10T04:29:37.482Z,5
2017-04-10T04:30:58.378Z,5
2017-04-10T04:32:20.497Z,5
2017-04-10T04:33:42.629Z,5
2017-04-10T04:35:04.761Z,10
2017-04-10T04:36:27.230Z,10
2017-04-10T04:37:49.481Z,10
2017-04-10T04:39:10.988Z,10
2017-04-10T04:40:33.172Z,10
2017-04-10T04:41:55.320Z,15
2017-04-10T04:43:17.759Z,15
2017-04-10T04:44:39.619Z,15
2017-04-10T04:46:00.838Z,20
2017-04-10T04:47:22.961Z,20
2017-04-10T04:48:45.208Z,25
2017-04-10T04:50:06.828Z,25
2017-04-10T04:51:28.979Z,30
2017-04-10T04:52:49.860Z,30
2017-04-10T04:54:11.674Z,30
2017-04-10T04:55:33.518Z,30
2017-04-10T04:56:55.399Z,35
2017-04-10T04:58:16.597Z,35
2017-04-10T04:59:38.349Z,35
2017-04-10T05:01:00.850Z,40
2017-04-10T05:02:23.016Z,40
2017-04-10T05:03:44.826Z,40
2017-04-10T05:05:06.629Z,40
2017-04-10T05:06:28.788Z,45
2017-04-10T05:07:50.922Z,45
2017-04-10T05:09:12.124Z,50
2017-04-10T05:10:34.662Z,50
2017-04-10T05:11:56.147Z,50
2017-04-10T05:13:18.278Z,50
2017-04-10T05:14:40.418Z,55
2017-04-10T05:16:02.808Z,55
2017-04-10T05:17:24.655Z,60
2017-04-10T05:18:46.469Z,60
2017-04-10T05:20:08.940Z,65
2017-04-10T05:21:31.728Z,75
2017-04-10T05:22:53.401Z,80
2017-04-10T05:24:15.248Z,80
2017-04-10T05:25:37.098Z,85
2017-04-10T05:26:59.805Z,90
2017-04-10T05:28:21.619Z,95
2017-04-10T05:29:43.435Z,95
2017-04-10T05:31:05.602Z,95
2017-04-10T05:32:27.677Z,95
2017-04-10T05:33:49.822Z,95
2017-04-10T05:35:11.336Z,100
2017-04-10T05:36:33.800Z,100
2017-04-10T05:37:56.692Z,100
2017-04-10T05:39:18.665Z,100
2017-04-10T05:40:40.788Z,105
2017-04-10T05:42:02.951Z,100
2017-04-10T05:43:25.028Z,105
2017-04-10T05:44:47.182Z,105
2017-04-10T05:46:09.361Z,110
2017-04-10T05:47:31.171Z,120
2017-04-10T05:48:53.314Z,120
2017-04-10T05:50:14.840Z,140
2017-04-10T05:51:36.656Z,135
2017-04-10T05:52:58.889Z,140
2017-04-10T05:54:21.621Z,140
2017-04-10T05:55:44.073Z,140
2017-04-10T05:57:06.209Z,140
2017-04-10T05:58:28.656Z,150
2017-04-10T05:59:51.074Z,165
2017-04-10T06:01:13.567Z,200
2017-04-10T06:02:35.195Z,220
2017-04-10T06:03:57.011Z,220
2017-04-10T06:05:19.518Z,220
2017-04-10T06:06:41.024Z,220
2017-04-10T06:08:02.839Z,230
2017-04-10T06:09:25.093Z,240
2017-04-10T06:10:47.578Z,230
2017-04-10T06:12:09.727Z,225
2017-04-10T06:13:31.657Z,240
2017-04-10T06:14:53.539Z,230
2017-04-10T06:16:15.920Z,230
2017-04-10T06:17:37.439Z,240
2017-04-10T06:18:59.288Z,260
2017-04-10T06:20:21.139Z,270
2017-04-10T06:21:43.629Z,265
2017-04-10T06:23:05.508Z,265
2017-04-10T06:24:27.999Z,265
2017-04-10T06:25:50.151Z,230
2017-04-10T06:27:12.547Z,210
2017-04-10T06:28:34.369Z,160
2017-04-10T06:29:56.509Z,175
2017-04-10T06:31:18.650Z,150
2017-04-10T06:32:41.048Z,140
2017-04-10T06:34:03.509Z,140
2017-04-10T06:35:25.649Z,155
2017-04-10T06:36:47.814Z,195
2017-04-10T06:38:10.529Z,205
2017-04-10T06:40:04.340Z,225
2017-04-10T06:41:26.800Z,195
2017-04-10T06:42:49.201Z,205
2017-04-10T06:44:11.476Z,190
2017-04-10T06:45:33.619Z,170
2017-04-10T06:46:55.437Z,185
2017-04-10T06:48:17.509Z,170
2017-04-10T06:49:39.989Z,140
2017-04-10T06:51:02.118Z,125
2017-04-10T06:52:24.317Z,135
2017-04-10T06:53:46.143Z,130
2017-04-10T06:55:08.086Z,165
2017-04-10T06:56:29.930Z,175
2017-04-10T06:57:51.429Z,135
2017-04-10T06:59:13.228Z,135
2017-04-10T07:00:35.581Z,110
2017-04-10T07:01:57.481Z,105
2017-04-10T07:03:19.958Z,125
2017-04-10T07:04:42.150Z,120
2017-04-10T07:06:03.679Z,125
2017-04-10T07:07:25.921Z,100
2017-04-10T07:08:48.071Z,100
2017-04-10T07:10:10.946Z,110
2017-04-10T07:11:32.567Z,195
2017-04-10T07:12:54.459Z,240
2017-04-10T07:14:17.037Z,205
2017-04-10T07:15:38.504Z,195
2017-04-10T07:17:00.663Z,220
2017-04-10T07:18:23.138Z,245
2017-04-10T07:19:44.957Z,220
2017-04-10T07:21:07.020Z,200
2017-04-10T07:22:28.999Z,205
2017-04-10T07:23:50.829Z,255
2017-04-10T07:25:12.752Z,235
2017-04-10T07:26:34.520Z,195
2017-04-10T07:27:56.353Z,210
2017-04-10T07:29:17.543Z,225
2017-04-10T07:30:38.451Z,205
2017-04-10T07:32:00.208Z,250
2017-04-10T07:33:22.419Z,235
2017-04-10T07:34:44.579Z,230
2017-04-10T07:36:06.736Z,245
2017-04-10T07:37:28.798Z,255
2017-04-10T07:38:51.093Z,225
2017-04-10T07:40:12.642Z,225
2017-04-10T07:41:34.817Z,245
2017-04-10T07:42:56.259Z,260
2017-04-10T07:44:17.801Z,230
2017-04-10T07:45:40.406Z,210
2017-04-10T07:47:02.568Z,170
2017-04-10T07:48:25.329Z,210
2017-04-10T07:49:47.476Z,215
2017-04-10T07:51:09.632Z,220
2017-04-10T07:52:32.180Z,190
2017-04-10T07:53:54.565Z,160
2017-04-10T07:55:16.712Z,155
2017-04-10T07:56:38.985Z,140
2017-04-10T07:58:00.927Z,135
2017-04-10T07:59:23.319Z,115
2017-04-10T08:00:45.773Z,100
2017-04-10T08:02:07.719Z,100
2017-04-10T08:03:29.881Z,105
2017-04-10T08:04:52.271Z,135
2017-04-10T08:06:14.808Z,165
2017-04-10T08:07:36.681Z,125
2017-04-10T08:08:58.823Z,110
2017-04-10T08:10:21.006Z,105
2017-04-10T08:11:43.500Z,95
2017-04-10T08:13:05.954Z,100
2017-04-10T08:14:28.520Z,115
2017-04-10T08:15:51.019Z,120
2017-04-10T08:17:12.548Z,140
2017-04-10T08:18:34.069Z,120
2017-04-10T08:19:55.907Z,110
2017-04-10T08:21:18.059Z,105
2017-04-10T08:22:40.218Z,110
2017-04-10T08:24:02.118Z,105
2017-04-10T08:25:23.951Z,105
2017-04-10T08:26:46.019Z,95
2017-04-10T08:28:08.479Z,85
2017-04-10T08:29:30.489Z,85
2017-04-10T08:30:53.504Z,75
2017-04-10T08:32:16.808Z,80
2017-04-10T08:33:38.965Z,90
2017-04-10T08:35:00.787Z,90
2017-04-10T08:36:22.940Z,90
2017-04-10T08:37:45.337Z,80
2017-04-10T08:39:07.829Z,100
2017-04-10T08:40:30.340Z,135
2017-04-10T08:41:51.867Z,145
2017-04-10T08:43:14.318Z,145
2017-04-10T08:44:36.238Z,150
2017-04-10T08:45:58.078Z,190
2017-04-10T08:47:20.608Z,170
2017-04-10T08:48:42.991Z,145
2017-04-10T08:50:05.521Z,125
2017-04-10T08:51:27.081Z,115
2017-04-10T08:52:49.578Z,120
2017-04-10T08:54:11.336Z,140
2017-04-10T08:55:33.527Z,155
2017-04-10T08:56:55.424Z,155
2017-04-10T08:58:17.848Z,185
2017-04-10T08:59:40.247Z,180
2017-04-10T09:01:02.124Z,185
2017-04-10T09:02:23.944Z,155
2017-04-10T09:03:46.399Z,150
2017-04-10T09:05:08.495Z,150
2017-04-10T09:06:30.698Z,150
2017-04-10T09:07:53.179Z,160
2017-04-10T09:09:15.379Z,180
2017-04-10T09:10:37.541Z,190
2017-04-10T09:11:59.828Z,185
2017-04-10T09:13:22.399Z,205
2017-04-10T09:14:44.254Z,250
2017-04-10T09:16:07.136Z,265
2017-04-10T09:17:29.288Z,225
2017-04-10T09:18:51.757Z,200
2017-04-10T09:20:13.728Z,175
2017-04-10T09:21:36.868Z,150
2017-04-10T09:22:59.006Z,150
2017-04-10T09:24:21.597Z,150
2017-04-10T09:25:44.483Z,160
2017-04-10T09:27:06.999Z,160
2017-04-10T09:28:28.529Z,140
2017-04-10T09:29:50.837Z,155
2017-04-10T09:31:13.000Z,140
2017-04-10T09:32:35.607Z,145
2017-04-10T09:33:57.834Z,185
2017-04-10T09:35:19.467Z,195
2017-04-10T09:36:41.928Z,200
2017-04-10T09:38:04.343Z,195
2017-04-10T09:39:26.176Z,190
2017-04-10T09:40:48.030Z,205
2017-04-10T09:42:10.497Z,215
2017-04-10T09:43:32.746Z,240
2017-04-10T09:44:55.198Z,255
2017-04-10T09:46:17.358Z,290
2017-04-10T09:47:39.640Z,280
2017-04-10T09:49:02.479Z,270
2017-04-10T09:50:24.425Z,250
2017-04-10T09:51:46.609Z,225
2017-04-10T09:53:08.144Z,195
2017-04-10T09:54:30.633Z,180
2017-04-10T09:55:52.869Z,175
2017-04-10T09:57:15.596Z,205
2017-04-10T09:58:37.749Z,275
2017-04-10T09:59:59.515Z,295
2017-04-10T10:01:22.250Z,305
2017-04-10T10:02:44.658Z,330
2017-04-10T10:04:06.853Z,355
2017-04-10T10:05:29.603Z,370
2017-04-10T10:06:51.148Z,375
2017-04-10T10:08:13.305Z,360
2017-04-10T10:09:35.799Z,345
2017-04-10T10:10:57.579Z,355
2017-04-10T10:12:19.736Z,330
2017-04-10T10:13:42.007Z,390
2017-04-10T10:15:04.621Z,485
2017-04-10T10:16:27.029Z,470
2017-04-10T10:17:49.207Z,450
2017-04-10T10:19:11.775Z,455
2017-04-10T10:20:34.222Z,430
2017-04-10T10:21:56.695Z,400
2017-04-10T10:23:18.222Z,405
2017-04-10T10:24:41.109Z,405
2017-04-10T10:26:03.584Z,435
2017-04-10T10:27:26.084Z,360
2017-04-10T10:28:48.225Z,260
2017-04-10T10:30:11.046Z,285
2017-04-10T10:31:32.456Z,305
2017-04-10T10:33:26.816Z,350
2017-04-10T10:34:49.276Z,345
2017-04-10T10:36:11.730Z,290
2017-04-10T10:37:33.597Z,260
2017-04-10T10:38:55.806Z,220
2017-04-10T10:40:18.226Z,215
2017-04-10T10:41:40.074Z,220
2017-04-10T10:43:02.556Z,220
2017-04-10T10:44:24.448Z,230
2017-04-10T10:45:46.664Z,240
2017-04-10T10:47:09.276Z,270
2017-04-10T10:48:31.108Z,270
2017-04-10T10:49:53.565Z,290
2017-04-10T10:51:16.396Z,300
2017-04-10T10:52:38.558Z,335
2017-04-10T10:54:00.834Z,380
2017-04-10T10:55:22.994Z,415
2017-04-10T10:56:45.071Z,480
2017-04-10T10:58:06.609Z,525
2017-04-10T10:59:28.784Z,520
2017-04-10T11:00:50.419Z,525
2017-04-10T11:02:13.205Z,470
2017-04-10T11:03:35.044Z,400
2017-04-10T11:04:56.906Z,310
2017-04-10T11:06:19.204Z,260
2017-04-10T11:07:41.605Z,225
2017-04-10T11:09:03.895Z,195
2017-04-10T11:10:25.728Z,175
2017-04-10T11:11:47.888Z,205
2017-04-10T11:13:10.635Z,270
2017-04-10T11:14:32.470Z,335
2017-04-10T11:15:54.314Z,385
2017-04-10T11:17:16.470Z,455
2017-04-10T11:18:39.233Z,460
2017-04-10T11:20:01.379Z,485
2017-04-10T11:21:22.889Z,515
2017-04-10T11:22:44.498Z,490
2017-04-10T11:24:06.887Z,495
2017-04-10T11:25:28.763Z,500
2017-04-10T11:26:50.714Z,470
2017-04-10T11:28:12.915Z,400
2017-04-10T11:29:35.326Z,400
2017-04-10T11:30:57.179Z,410
2017-04-10T11:32:18.764Z,400
2017-04-10T11:33:40.286Z,410
2017-04-10T11:35:02.865Z,425
2017-04-10T11:36:24.326Z,440
2017-04-10T11:37:46.829Z,440
2017-04-10T11:39:09.357Z,450
2017-04-10T11:40:32.139Z,445
2017-04-10T11:41:54.625Z,420
2017-04-10T11:43:16.567Z,380
2017-04-10T11:44:38.389Z,370
2017-04-10T11:46:01.179Z,330
2017-04-10T11:47:23.133Z,290
2017-04-10T11:48:45.005Z,295
2017-04-10T11:50:07.169Z,300
2017-04-10T11:51:30.015Z,310
2017-04-10T11:52:52.488Z,335
2017-04-10T11:54:14.962Z,375
2017-04-10T11:55:36.794Z,390
2017-04-10T11:56:59.205Z,375
2017-04-10T11:58:21.679Z,365
2017-04-10T11:59:44.246Z,345
2017-04-10T12:01:06.418Z,345
2017-04-10T12:02:28.554Z,325
2017-04-10T12:03:50.687Z,305
2017-04-10T12:05:12.586Z,315
2017-04-10T12:06:34.799Z,330
2017-04-10T12:07:57.210Z,380
2017-04-10T12:09:19.676Z,415
2017-04-10T12:10:41.824Z,425
2017-04-10T12:12:04.181Z,410
2017-04-10T12:13:26.677Z,390
2017-04-10T12:14:48.831Z,370
2017-04-10T12:16:11.084Z,410
2017-04-10T12:17:32.957Z,450
2017-04-10T12:18:55.237Z,475
2017-04-10T12:20:17.777Z,450
2017-04-10T12:21:39.396Z,355
2017-04-10T12:23:01.596Z,330
2017-04-10T12:24:24.059Z,325
2017-04-10T12:25:46.046Z,355
2017-04-10T12:27:08.570Z,395
2017-04-10T12:28:30.724Z,425
2017-04-10T12:29:52.797Z,435
2017-04-10T12:31:14.646Z,440
2017-04-10T12:32:37.098Z,440
2017-04-10T12:33:59.608Z,440
2017-04-10T12:35:22.332Z,465
2017-04-10T12:36:44.148Z,440
2017-04-10T12:38:06.338Z,430
2017-04-10T12:39:28.888Z,410
2017-04-10T12:40:51.296Z,405
2017-04-10T12:42:13.757Z,380
2017-04-10T12:43:35.708Z,360
2017-04-10T12:44:57.561Z,295
2017-04-10T12:46:19.194Z,290
2017-04-10T12:47:40.708Z,290
2017-04-10T12:49:02.561Z,285
2017-04-10T12:50:24.396Z,325
2017-04-10T12:51:46.893Z,310
2017-04-10T12:53:09.450Z,310
2017-04-10T12:54:31.406Z,300
2017-04-10T12:55:53.252Z,285
2017-04-10T12:57:16.019Z,280
2017-04-10T12:58:37.843Z,330
2017-04-10T13:00:00.313Z,390
2017-04-10T13:01:22.147Z,415
2017-04-10T13:02:44.326Z,405
2017-04-10T13:04:06.168Z,370
2017-04-10T13:05:28.509Z,330
2017-04-10T13:06:50.980Z,310
2017-04-10T13:08:13.057Z,265
2017-04-10T13:09:35.249Z,280
2017-04-10T13:10:57.482Z,335
2017-04-10T13:12:19.648Z,350
2017-04-10T13:13:42.048Z,350
2017-04-10T13:15:03.673Z,325
2017-04-10T13:16:25.521Z,305
2017-04-10T13:17:47.488Z,330
2017-04-10T13:19:09.897Z,370
2017-04-10T13:20:32.048Z,380
2017-04-10T13:21:53.868Z,375
2017-04-10T13:23:16.498Z,370
2017-04-10T13:24:38.598Z,355
2017-04-10T13:26:00.786Z,345
2017-04-10T13:27:22.059Z,340
2017-04-10T13:28:44.616Z,330
2017-04-10T13:30:07.017Z,330
2017-04-10T13:31:29.620Z,315
2017-04-10T13:32:52.087Z,295
2017-04-10T13:34:13.918Z,250
2017-04-10T13:35:36.356Z,195
2017-04-10T13:36:58.256Z,165
2017-04-10T13:38:20.600Z,150
2017-04-10T13:39:42.142Z,160
2017-04-10T13:41:04.570Z,185
2017-04-10T13:42:26.930Z,215
2017-04-10T13:43:49.170Z,230
2017-04-10T13:45:11.008Z,240
2017-04-10T13:46:33.758Z,270
2017-04-10T13:47:56.220Z,290
2017-04-10T13:49:18.553Z,285
2017-04-10T13:50:40.713Z,300
2017-04-10T13:52:03.088Z,310
2017-04-10T13:53:24.378Z,300
2017-04-10T13:54:46.610Z,305
2017-04-10T13:56:08.756Z,325
2017-04-10T13:57:31.236Z,315
2017-04-10T13:58:53.056Z,295
2017-04-10T14:00:15.218Z,265
2017-04-10T14:01:37.359Z,265
2017-04-10T14:02:59.830Z,290
2017-04-10T14:04:22.317Z,260
2017-04-10T14:05:43.953Z,230
2017-04-10T14:07:05.772Z,195
2017-04-10T14:08:28.313Z,175
2017-04-10T14:09:50.256Z,170
2017-04-10T14:11:12.750Z,180
2017-04-10T14:12:34.572Z,185
2017-04-10T14:13:56.440Z,185
2017-04-10T14:15:18.615Z,210
2017-04-10T14:16:39.808Z,250
2017-04-10T14:18:02.340Z,285
2017-04-10T14:19:24.857Z,290
2017-04-10T14:20:46.671Z,305
2017-04-10T14:22:08.929Z,310
2017-04-10T14:23:31.104Z,305
2017-04-10T14:24:53.340Z,295
2017-04-10T14:26:15.238Z,255
2017-04-10T14:27:37.409Z,210
2017-04-10T14:28:59.901Z,170
2017-04-10T14:30:22.173Z,135
2017-04-10T14:31:44.360Z,115
2017-04-10T14:33:06.312Z,130
2017-04-10T14:34:28.157Z,180
2017-04-10T14:35:50.711Z,230
2017-04-10T14:37:12.632Z,260
2017-04-10T14:38:34.539Z,270
2017-04-10T14:39:56.714Z,270
2017-04-10T14:41:19.176Z,260
2017-04-10T14:42:41.333Z,250
2017-04-10T14:44:04.049Z,225
2017-04-10T14:45:26.273Z,185
2017-04-10T14:46:48.648Z,155
2017-04-10T14:48:11.120Z,140
2017-04-10T14:49:33.664Z,155
2017-04-10T14:50:55.857Z,175
2017-04-10T14:52:17.963Z,190
2017-04-10T14:53:40.523Z,220
2017-04-10T14:55:01.781Z,245
2017-04-10T14:56:24.431Z,260
2017-04-10T14:57:46.563Z,265
2017-04-10T14:59:08.811Z,270
2017-04-10T15:00:30.987Z,260
2017-04-10T15:01:52.892Z,240
2017-04-10T15:03:15.317Z,250
2017-04-10T15:04:37.929Z,240
2017-04-10T15:06:00.111Z,235
2017-04-10T15:07:22.280Z,240
2017-04-10T15:08:44.981Z,245
2017-04-10T15:10:07.151Z,245
2017-04-10T15:11:29.460Z,240
2017-04-10T15:12:51.613Z,255
2017-04-10T15:14:13.712Z,260
2017-04-10T15:15:36.192Z,260
2017-04-10T15:16:58.029Z,240
2017-04-10T15:18:20.261Z,215
2017-04-10T15:19:42.361Z,200
2017-04-10T15:21:04.553Z,210
2017-04-10T15:22:26.732Z,200
2017-04-10T15:23:48.584Z,215
2017-04-10T15:25:11.565Z,215
2017-04-10T15:26:33.390Z,205
2017-04-10T15:27:54.923Z,220
2017-04-10T15:29:17.241Z,235
2017-04-10T15:30:39.977Z,230
2017-04-10T15:32:01.820Z,220
2017-04-10T15:33:23.719Z,210
2017-04-10T15:34:46.208Z,205
2017-04-10T15:36:07.990Z,195
2017-04-10T15:37:30.231Z,185
2017-04-10T15:38:52.469Z,160
2017-04-10T15:40:14.615Z,130
2017-04-10T15:41:37.240Z,105
2017-04-10T15:42:59.481Z,100
2017-04-10T15:44:22.088Z,120
2017-04-10T15:45:44.572Z,125
2017-04-10T15:47:07.044Z,140
2017-04-10T15:48:30.628Z,170
2017-04-10T15:49:52.931Z,185
2017-04-10T15:51:15.421Z,190
2017-04-10T15:52:38.539Z,180
2017-04-10T15:54:01.901Z,185
2017-04-10T15:55:24.821Z,180
2017-04-10T15:56:46.990Z,165
2017-04-10T15:58:09.412Z,155
2017-04-10T15:59:31.488Z,155
2017-04-10T16:00:53.500Z,160
2017-04-10T16:02:15.670Z,155
2017-04-10T16:03:38.106Z,160
2017-04-10T16:05:00.523Z,160
2017-04-10T16:06:22.727Z,155
2017-04-10T16:07:44.983Z,145
2017-04-10T16:09:07.818Z,155
2017-04-10T16:10:30.283Z,160
2017-04-10T16:11:53.421Z,160
2017-04-10T16:13:15.622Z,155
2017-04-10T16:14:38.132Z,160
2017-04-10T16:16:00.630Z,165
2017-04-10T16:17:23.156Z,165
2017-04-10T16:18:45.511Z,165
2017-04-10T16:20:07.401Z,155
2017-04-10T16:21:29.929Z,150
2017-04-10T16:22:52.086Z,145
2017-04-10T16:24:14.589Z,135
2017-04-10T16:25:37.303Z,125
2017-04-10T16:26:59.150Z,120
2017-04-10T16:28:21.303Z,135
2017-04-10T16:29:43.726Z,145
2017-04-10T16:31:05.827Z,130
2017-04-10T16:32:28.040Z,125
2017-04-10T16:33:50.531Z,120
2017-04-10T16:35:13.074Z,110
2017-04-10T16:36:35.604Z,100
2017-04-10T16:37:57.489Z,95
2017-04-10T16:39:19.339Z,85
2017-04-10T16:40:41.555Z,85
2017-04-10T16:42:04.059Z,75
2017-04-10T16:43:26.216Z,65
2017-04-10T16:44:48.920Z,70
2017-04-10T16:46:11.147Z,75
2017-04-10T16:47:33.621Z,75
2017-04-10T16:48:56.248Z,75
2017-04-10T16:50:18.128Z,70
2017-04-10T16:51:40.438Z,70
2017-04-10T16:53:02.708Z,70
2017-04-10T16:54:25.068Z,75
2017-04-10T16:55:47.551Z,80
2017-04-10T16:57:10.118Z,85
2017-04-10T16:58:32.927Z,80
2017-04-10T16:59:55.408Z,70
2017-04-10T17:01:17.593Z,65
2017-04-10T17:02:39.458Z,60
2017-04-10T17:04:01.557Z,55
2017-04-10T17:05:24.075Z,50
2017-04-10T17:06:46.547Z,50
2017-04-10T17:08:08.103Z,45
2017-04-10T17:09:30.964Z,45
2017-04-10T17:10:53.258Z,40
2017-04-10T17:12:15.626Z,35
2017-04-10T17:13:37.160Z,35
2017-04-10T17:14:59.760Z,30
2017-04-10T17:16:21.611Z,30
2017-04-10T17:17:44.230Z,30
2017-04-10T17:19:06.728Z,30
2017-04-10T17:20:28.967Z,25
2017-04-10T17:21:51.178Z,20
2017-04-10T17:23:13.335Z,20
2017-04-10T17:24:35.870Z,15
2017-04-10T17:25:58.448Z,10
2017-04-10T17:27:20.339Z,10
2017-04-10T17:28:42.527Z,10
2017-04-10T17:30:04.690Z,10
2017-04-10T17:31:27.148Z,10
2017-04-10T17:32:49.644Z,10
2017-04-10T17:34:11.499Z,10
2017-04-10T17:35:34.006Z,5
2017-04-10T17:36:56.806Z,5
2017-04-10T17:38:19.398Z,10
2017-04-10T17:39:41.863Z,10
2017-04-10T17:41:04.031Z,10
2017-04-10T17:42:26.442Z,10
2017-04-10T17:43:48.716Z,10
2017-04-10T17:45:10.913Z,10
2017-04-10T17:46:33.408Z,10
2017-04-10T17:47:56.149Z,10
2017-04-10T17:49:18.646Z,10
2017-04-10T17:50:40.827Z,15
2017-04-10T17:52:03.070Z,10
2017-04-10T17:53:25.233Z,10
2017-04-10T17:54:47.424Z,5
2017-04-10T17:56:09.580Z,5
2017-04-10T17:57:31.744Z,5
2017-04-10T17:58:54.559Z,5
2017-04-10T18:00:17.064Z,5
2017-04-10T18:01:38.947Z,5
2017-04-10T18:03:01.432Z,5
2017-04-10T18:04:24.247Z,5
2017-04-10T18:05:46.749Z,5
2017-04-10T18:07:08.967Z,5
2017-04-10T18:08:31.151Z,5
2017-04-10T18:09:54.001Z,5
2017-04-10T18:11:16.498Z,5
2017-04-10T18:12:38.707Z,5
2017-04-10T18:14:01.306Z,5
2017-04-10T18:15:24.072Z,5
2017-04-10T18:16:46.628Z,0
2017-04-10T18:18:08.858Z,0
2017-04-10T18:19:30.735Z,0
2017-04-10T18:20:52.949Z,0
2017-04-10T18:22:15.646Z,0
2017-04-10T18:23:38.142Z,0
2017-04-10T18:25:00.670Z,0
2017-04-10T18:26:23.097Z,0
2017-04-10T18:27:45.268Z,0
2017-04-10T18:29:07.451Z,0
2017-04-10T18:30:30.049Z,0
2017-04-10T18:31:52.288Z,0
2017-04-10T18:33:14.462Z,0
2017-04-10T18:34:36.336Z,0
2017-04-10T18:35:58.513Z,0
2017-04-10T18:37:20.620Z,0
2017-04-10T18:38:42.807Z,0
2017-04-10T18:40:04.694Z,0
2017-04-10T18:41:26.231Z,0
2017-04-10T18:42:48.726Z,0
2017-04-10T18:44:10.928Z,0
2017-04-10T18:45:33.436Z,0
2017-04-10T18:46:55.629Z,0
2017-04-10T18:48:18.373Z,0
2017-04-10T18:49:40.248Z,0
2017-04-10T18:51:02.545Z,0
2017-04-10T18:52:24.887Z,0
2017-04-10T18:53:46.697Z,0
2017-04-10T18:55:09.187Z,0
2017-04-10T18:56:31.553Z,0
2017-04-10T18:57:53.486Z,0
2017-04-10T18:59:16.236Z,0
2017-04-10T19:00:38.706Z,0
2017-04-10T19:02:00.886Z,0
2017-04-10T19:03:23.357Z,0
2017-04-10T19:04:46.140Z,0
2017-04-10T19:06:08.607Z,0
2017-04-10T19:07:30.816Z,0
2017-04-10T19:08:52.988Z,0
2017-04-10T19:10:15.502Z,0
2017-04-10T19:11:37.720Z,0
2017-04-10T19:12:59.906Z,0
2017-04-10T19:14:22.097Z,0
2017-04-10T19:15:44.291Z,0
2017-04-10T19:17:06.526Z,0
2017-04-10T19:18:29.007Z,0
2017-04-10T19:19:50.618Z,0
2017-04-10T19:21:13.096Z,0
2017-04-10T19:22:35.626Z,0